sensor_id;sensor_type;location;lat;lon;timestamp;temperature;humidity
4993;DHT22;2514;53.524;10.166;2022-11-20T00:00:22;1.80;99.90
4993;DHT22;2514;53.524;10.166;2022-11-20T00:02:49;1.70;99.90
4993;DHT22;2514;53.524;10.166;2022-11-20T00:05:17;1.70;99.90
4993;DHT22;2514;53.524;10.166;2022-11-20T00:07:46;1.80;1.00
4993;DHT22;2514;53.524;10.166;2022-11-20T00:10:13;1.80;1.00
4993;DHT22;2514;53.524;10.166;2022-11-20T00:12:40;1.80;1.00
4993;DHT22;2514;53.524;10.166;2022-11-20T00:15:08;1.80;1.00
4993;DHT22;2514;53.524;10.166;2022-11-20T00:17:36;1.80;1.00
4993;DHT22;2514;53.524;10.166;2022-11-20T00:20:03;1.80;1.00
4993;DHT22;2514;53.524;10.166;2022-11-20T00:22:31;1.80;1.00
4993;DHT22;2514;53.524;10.166;2022-11-20T00:24:59;1.80;1.00
4993;DHT22;2514;53.524;10.166;2022-11-20T00:27:26;1.80;1.00
4993;DHT22;2514;53.524;10.166;2022-11-20T00:29:53;1.80;1.00
4993;DHT22;2514;53.524;10.166;2022-11-20T00:32:21;1.80;1.00
4993;DHT22;2514;53.524;10.166;2022-11-20T00:34:48;1.70;1.00
4993;DHT22;2514;53.524;10.166;2022-11-20T00:37:15;1.70;1.00
4993;DHT22;2514;53.524;10.166;2022-11-20T00:39:42;1.70;1.00
4993;DHT22;2514;53.524;10.166;2022-11-20T00:42:10;1.70;1.00
4993;DHT22;2514;53.524;10.166;2022-11-20T00:44:37;1.70;1.00
4993;DHT22;2514;53.524;10.166;2022-11-20T00:47:04;1.70;1.00
4993;DHT22;2514;53.524;10.166;2022-11-20T00:49:31;1.70;1.00
4993;DHT22;2514;53.524;10.166;2022-11-20T00:51:58;1.70;1.00
4993;DHT22;2514;53.524;10.166;2022-11-20T00:54:25;1.70;52.50
4993;DHT22;2514;53.524;10.166;2022-11-20T00:56:52;1.70;99.90
4993;DHT22;2514;53.524;10.166;2022-11-20T00:59:21;1.70;99.90
4993;DHT22;2514;53.524;10.166;2022-11-20T01:01:48;1.70;99.90
4993;DHT22;2514;53.524;10.166;2022-11-20T01:04:15;1.60;99.90
4993;DHT22;2514;53.524;10.166;2022-11-20T01:06:42;1.60;1.00
4993;DHT22;2514;53.524;10.166;2022-11-20T01:09:11;1.70;1.00
4993;DHT22;2514;53.524;10.166;2022-11-20T01:11:41;1.70;85.30
4993;DHT22;2514;53.524;10.166;2022-11-20T01:14:10;1.70;99.90
4993;DHT22;2514;53.524;10.166;2022-11-20T01:16:42;1.70;99.90
4993;DHT22;2514;53.524;10.166;2022-11-20T01:19:12;1.70;99.90
4993;DHT22;2514;53.524;10.166;2022-11-20T01:21:42;1.70;99.90
4993;DHT22;2514;53.524;10.166;2022-11-20T01:24:11;1.70;1.00
4993;DHT22;2514;53.524;10.166;2022-11-20T01:26:41;1.70;1.00
4993;DHT22;2514;53.524;10.166;2022-11-20T01:29:13;1.70;1.00
4993;DHT22;2514;53.524;10.166;2022-11-20T01:31:44;1.70;1.00
4993;DHT22;2514;53.524;10.166;2022-11-20T01:34:13;1.70;1.00
4993;DHT22;2514;53.524;10.166;2022-11-20T01:36:42;1.70;1.00
4993;DHT22;2514;53.524;10.166;2022-11-20T01:39:12;1.70;19.80
4993;DHT22;2514;53.524;10.166;2022-11-20T01:41:41;1.70;49.60
4993;DHT22;2514;53.524;10.166;2022-11-20T01:47:46;1.70;1.00
4993;DHT22;2514;53.524;10.166;2022-11-20T01:50:16;1.70;1.00
4993;DHT22;2514;53.524;10.166;2022-11-20T01:52:50;1.70;1.00
4993;DHT22;2514;53.524;10.166;2022-11-20T01:55:21;1.70;1.00
4993;DHT22;2514;53.524;10.166;2022-11-20T01:57:50;1.70;87.30
4993;DHT22;2514;53.524;10.166;2022-11-20T02:00:19;1.70;99.90
4993;DHT22;2514;53.524;10.166;2022-11-20T02:02:51;1.70;1.00
4993;DHT22;2514;53.524;10.166;2022-11-20T02:05:24;1.70;1.00
4993;DHT22;2514;53.524;10.166;2022-11-20T02:07:54;1.70;99.90
4993;DHT22;2514;53.524;10.166;2022-11-20T02:10:23;1.70;30.30
4993;DHT22;2514;53.524;10.166;2022-11-20T02:12:50;1.70;99.90
4993;DHT22;2514;53.524;10.166;2022-11-20T02:15:35;1.60;1.00
4993;DHT22;2514;53.524;10.166;2022-11-20T02:18:04;1.60;34.30
4993;DHT22;2514;53.524;10.166;2022-11-20T02:20:32;1.60;99.90
4993;DHT22;2514;53.524;10.166;2022-11-20T02:23:03;1.60;1.00
4993;DHT22;2514;53.524;10.166;2022-11-20T02:25:35;1.60;99.90
4993;DHT22;2514;53.524;10.166;2022-11-20T02:28:03;1.50;1.00
4993;DHT22;2514;53.524;10.166;2022-11-20T02:30:31;1.50;55.20
4993;DHT22;2514;53.524;10.166;2022-11-20T02:32:58;1.50;99.90
4993;DHT22;2514;53.524;10.166;2022-11-20T02:35:43;1.50;1.00
4993;DHT22;2514;53.524;10.166;2022-11-20T02:38:11;1.40;1.00
4993;DHT22;2514;53.524;10.166;2022-11-20T02:40:40;1.50;1.00
4993;DHT22;2514;53.524;10.166;2022-11-20T02:43:07;1.50;99.90
4993;DHT22;2514;53.524;10.166;2022-11-20T02:45:35;1.40;99.90
4993;DHT22;2514;53.524;10.166;2022-11-20T02:48:02;1.50;99.90
4993;DHT22;2514;53.524;10.166;2022-11-20T02:50:29;1.40;99.90
4993;DHT22;2514;53.524;10.166;2022-11-20T02:52:56;1.40;99.90
4993;DHT22;2514;53.524;10.166;2022-11-20T02:55:23;1.40;99.90
4993;DHT22;2514;53.524;10.166;2022-11-20T02:57:52;1.40;99.90
4993;DHT22;2514;53.524;10.166;2022-11-20T03:00:19;1.40;99.90
4993;DHT22;2514;53.524;10.166;2022-11-20T03:02:46;1.40;99.90
4993;DHT22;2514;53.524;10.166;2022-11-20T03:05:13;1.40;99.90
4993;DHT22;2514;53.524;10.166;2022-11-20T03:07:40;1.40;99.90
4993;DHT22;2514;53.524;10.166;2022-11-20T03:10:09;1.30;99.90
4993;DHT22;2514;53.524;10.166;2022-11-20T03:12:36;1.40;99.90
4993;DHT22;2514;53.524;10.166;2022-11-20T03:15:05;1.40;99.90
4993;DHT22;2514;53.524;10.166;2022-11-20T03:17:33;1.40;99.90
4993;DHT22;2514;53.524;10.166;2022-11-20T03:20:00;1.40;99.90
4993;DHT22;2514;53.524;10.166;2022-11-20T03:22:28;1.50;99.90
4993;DHT22;2514;53.524;10.166;2022-11-20T03:24:56;1.40;99.90
4993;DHT22;2514;53.524;10.166;2022-11-20T03:27:23;1.50;99.90
4993;DHT22;2514;53.524;10.166;2022-11-20T03:29:50;1.50;99.90
4993;DHT22;2514;53.524;10.166;2022-11-20T03:32:23;1.50;99.90
4993;DHT22;2514;53.524;10.166;2022-11-20T03:34:50;1.50;99.90
4993;DHT22;2514;53.524;10.166;2022-11-20T03:37:17;1.60;99.90
4993;DHT22;2514;53.524;10.166;2022-11-20T03:39:45;1.60;99.90
4993;DHT22;2514;53.524;10.166;2022-11-20T03:42:12;1.60;99.90
4993;DHT22;2514;53.524;10.166;2022-11-20T03:44:53;1.60;99.90
4993;DHT22;2514;53.524;10.166;2022-11-20T03:47:20;1.60;99.90
4993;DHT22;2514;53.524;10.166;2022-11-20T03:49:48;1.60;99.90
4993;DHT22;2514;53.524;10.166;2022-11-20T03:52:15;1.60;93.80
4993;DHT22;2514;53.524;10.166;2022-11-20T03:54:42;1.60;90.40
4993;DHT22;2514;53.524;10.166;2022-11-20T03:57:09;1.60;99.90
4993;DHT22;2514;53.524;10.166;2022-11-20T03:59:36;1.60;20.70
4993;DHT22;2514;53.524;10.166;2022-11-20T04:02:03;1.60;1.00
4993;DHT22;2514;53.524;10.166;2022-11-20T04:04:32;1.70;1.00
4993;DHT22;2514;53.524;10.166;2022-11-20T04:07:00;1.60;1.00
4993;DHT22;2514;53.524;10.166;2022-11-20T04:09:27;1.70;1.00
4993;DHT22;2514;53.524;10.166;2022-11-20T04:11:54;1.60;1.00
4993;DHT22;2514;53.524;10.166;2022-11-20T04:14:21;1.60;1.00
4993;DHT22;2514;53.524;10.166;2022-11-20T04:16:48;1.50;1.00
4993;DHT22;2514;53.524;10.166;2022-11-20T04:19:16;1.50;1.00
4993;DHT22;2514;53.524;10.166;2022-11-20T04:21:44;1.50;1.00
4993;DHT22;2514;53.524;10.166;2022-11-20T04:24:13;1.50;1.00
4993;DHT22;2514;53.524;10.166;2022-11-20T04:26:40;1.50;1.00
4993;DHT22;2514;53.524;10.166;2022-11-20T04:29:10;1.50;1.00
4993;DHT22;2514;53.524;10.166;2022-11-20T04:31:38;1.50;1.00
4993;DHT22;2514;53.524;10.166;2022-11-20T04:34:06;1.50;1.00
4993;DHT22;2514;53.524;10.166;2022-11-20T04:36:34;1.50;1.00
4993;DHT22;2514;53.524;10.166;2022-11-20T04:39:03;1.60;1.00
4993;DHT22;2514;53.524;10.166;2022-11-20T04:41:35;1.60;1.00
4993;DHT22;2514;53.524;10.166;2022-11-20T04:44:04;1.50;1.00
4993;DHT22;2514;53.524;10.166;2022-11-20T04:46:34;1.50;1.00
4993;DHT22;2514;53.524;10.166;2022-11-20T04:49:02;1.50;1.00
4993;DHT22;2514;53.524;10.166;2022-11-20T04:51:29;1.60;42.10
4993;DHT22;2514;53.524;10.166;2022-11-20T04:53:56;1.60;99.90
4993;DHT22;2514;53.524;10.166;2022-11-20T04:56:24;1.50;97.80
4993;DHT22;2514;53.524;10.166;2022-11-20T04:58:52;1.50;48.70
4993;DHT22;2514;53.524;10.166;2022-11-20T05:01:21;1.60;72.30
4993;DHT22;2514;53.524;10.166;2022-11-20T05:03:49;1.60;86.70
4993;DHT22;2514;53.524;10.166;2022-11-20T05:06:18;1.50;33.80
4993;DHT22;2514;53.524;10.166;2022-11-20T05:08:46;1.50;1.00
4993;DHT22;2514;53.524;10.166;2022-11-20T05:11:15;1.50;1.00
4993;DHT22;2514;53.524;10.166;2022-11-20T05:13:44;1.50;1.00
4993;DHT22;2514;53.524;10.166;2022-11-20T05:16:14;1.40;21.20
4993;DHT22;2514;53.524;10.166;2022-11-20T05:18:42;1.40;45.00
4993;DHT22;2514;53.524;10.166;2022-11-20T05:21:10;1.40;99.90
4993;DHT22;2514;53.524;10.166;2022-11-20T05:23:38;1.40;99.90
4993;DHT22;2514;53.524;10.166;2022-11-20T05:26:07;1.40;99.90
4993;DHT22;2514;53.524;10.166;2022-11-20T05:28:37;1.40;99.90
4993;DHT22;2514;53.524;10.166;2022-11-20T05:31:06;1.40;99.90
4993;DHT22;2514;53.524;10.166;2022-11-20T05:33:35;1.40;99.90
4993;DHT22;2514;53.524;10.166;2022-11-20T05:36:03;1.40;99.90
4993;DHT22;2514;53.524;10.166;2022-11-20T05:38:31;1.40;99.90
4993;DHT22;2514;53.524;10.166;2022-11-20T05:41:03;1.30;99.90
4993;DHT22;2514;53.524;10.166;2022-11-20T05:43:32;1.30;99.90
4993;DHT22;2514;53.524;10.166;2022-11-20T05:46:00;1.30;99.90
4993;DHT22;2514;53.524;10.166;2022-11-20T05:48:27;1.30;99.90
4993;DHT22;2514;53.524;10.166;2022-11-20T05:50:58;1.30;99.90
4993;DHT22;2514;53.524;10.166;2022-11-20T05:53:25;1.30;99.90
4993;DHT22;2514;53.524;10.166;2022-11-20T05:55:59;1.30;99.90
4993;DHT22;2514;53.524;10.166;2022-11-20T05:58:26;1.30;99.90
4993;DHT22;2514;53.524;10.166;2022-11-20T06:00:54;1.30;99.90
4993;DHT22;2514;53.524;10.166;2022-11-20T06:03:21;1.20;99.90
4993;DHT22;2514;53.524;10.166;2022-11-20T06:05:48;1.20;99.90
4993;DHT22;2514;53.524;10.166;2022-11-20T06:08:16;1.20;99.90
4993;DHT22;2514;53.524;10.166;2022-11-20T06:10:43;1.20;99.90
4993;DHT22;2514;53.524;10.166;2022-11-20T06:13:10;1.10;99.90
4993;DHT22;2514;53.524;10.166;2022-11-20T06:15:37;1.10;99.90
4993;DHT22;2514;53.524;10.166;2022-11-20T06:18:05;1.00;99.90
4993;DHT22;2514;53.524;10.166;2022-11-20T06:20:32;1.10;99.90
4993;DHT22;2514;53.524;10.166;2022-11-20T06:22:59;1.00;99.90
4993;DHT22;2514;53.524;10.166;2022-11-20T06:25:27;1.00;99.90
4993;DHT22;2514;53.524;10.166;2022-11-20T06:27:54;1.00;99.90
4993;DHT22;2514;53.524;10.166;2022-11-20T06:30:21;1.00;99.90
4993;DHT22;2514;53.524;10.166;2022-11-20T06:32:48;1.00;99.90
4993;DHT22;2514;53.524;10.166;2022-11-20T06:35:15;1.00;99.90
4993;DHT22;2514;53.524;10.166;2022-11-20T06:37:42;1.00;99.90
4993;DHT22;2514;53.524;10.166;2022-11-20T06:40:10;1.00;99.90
4993;DHT22;2514;53.524;10.166;2022-11-20T06:42:39;1.00;99.90
4993;DHT22;2514;53.524;10.166;2022-11-20T06:45:07;1.00;99.90
4993;DHT22;2514;53.524;10.166;2022-11-20T06:47:35;1.00;99.90
4993;DHT22;2514;53.524;10.166;2022-11-20T06:50:02;1.00;99.90
4993;DHT22;2514;53.524;10.166;2022-11-20T06:52:29;1.00;99.90
4993;DHT22;2514;53.524;10.166;2022-11-20T06:54:56;1.00;99.90
4993;DHT22;2514;53.524;10.166;2022-11-20T06:57:23;1.00;99.90
4993;DHT22;2514;53.524;10.166;2022-11-20T06:59:52;1.10;99.90
4993;DHT22;2514;53.524;10.166;2022-11-20T07:02:19;1.20;99.90
4993;DHT22;2514;53.524;10.166;2022-11-20T07:04:46;1.20;99.90
4993;DHT22;2514;53.524;10.166;2022-11-20T07:07:13;1.30;99.90
4993;DHT22;2514;53.524;10.166;2022-11-20T07:09:40;1.20;99.90
4993;DHT22;2514;53.524;10.166;2022-11-20T07:12:07;1.20;99.90
4993;DHT22;2514;53.524;10.166;2022-11-20T07:14:35;1.20;99.90
4993;DHT22;2514;53.524;10.166;2022-11-20T07:17:03;1.20;99.90
4993;DHT22;2514;53.524;10.166;2022-11-20T07:19:30;1.20;99.90
4993;DHT22;2514;53.524;10.166;2022-11-20T07:21:57;1.30;99.90
4993;DHT22;2514;53.524;10.166;2022-11-20T07:24:24;1.30;99.90
4993;DHT22;2514;53.524;10.166;2022-11-20T07:26:51;1.30;99.90
4993;DHT22;2514;53.524;10.166;2022-11-20T07:29:18;1.30;99.90
4993;DHT22;2514;53.524;10.166;2022-11-20T07:31:45;1.30;99.90
4993;DHT22;2514;53.524;10.166;2022-11-20T07:34:13;1.30;99.90
4993;DHT22;2514;53.524;10.166;2022-11-20T07:36:40;1.40;99.90
4993;DHT22;2514;53.524;10.166;2022-11-20T07:39:07;1.40;99.90
4993;DHT22;2514;53.524;10.166;2022-11-20T07:41:34;1.40;99.90
4993;DHT22;2514;53.524;10.166;2022-11-20T07:44:02;1.40;99.90
4993;DHT22;2514;53.524;10.166;2022-11-20T07:46:29;1.40;99.90
4993;DHT22;2514;53.524;10.166;2022-11-20T07:48:56;1.40;99.90
4993;DHT22;2514;53.524;10.166;2022-11-20T07:51:24;1.40;99.90
4993;DHT22;2514;53.524;10.166;2022-11-20T07:53:52;1.50;99.90
4993;DHT22;2514;53.524;10.166;2022-11-20T07:56:19;1.50;99.90
4993;DHT22;2514;53.524;10.166;2022-11-20T07:58:47;1.40;99.90
4993;DHT22;2514;53.524;10.166;2022-11-20T08:01:14;1.40;99.90
4993;DHT22;2514;53.524;10.166;2022-11-20T08:03:41;1.40;99.90
4993;DHT22;2514;53.524;10.166;2022-11-20T08:06:08;1.50;99.90
4993;DHT22;2514;53.524;10.166;2022-11-20T08:08:36;1.40;99.90
4993;DHT22;2514;53.524;10.166;2022-11-20T08:11:05;1.50;99.90
4993;DHT22;2514;53.524;10.166;2022-11-20T08:13:49;1.40;99.90
4993;DHT22;2514;53.524;10.166;2022-11-20T08:16:34;1.50;99.90
4993;DHT22;2514;53.524;10.166;2022-11-20T08:19:01;1.40;99.90
4993;DHT22;2514;53.524;10.166;2022-11-20T08:21:28;1.40;99.90
4993;DHT22;2514;53.524;10.166;2022-11-20T08:23:58;1.40;99.90
4993;DHT22;2514;53.524;10.166;2022-11-20T08:26:26;1.40;99.90
4993;DHT22;2514;53.524;10.166;2022-11-20T08:28:54;1.40;99.90
4993;DHT22;2514;53.524;10.166;2022-11-20T08:31:21;1.40;99.90
4993;DHT22;2514;53.524;10.166;2022-11-20T08:33:49;1.40;99.90
4993;DHT22;2514;53.524;10.166;2022-11-20T08:36:17;1.40;99.90
4993;DHT22;2514;53.524;10.166;2022-11-20T08:38:47;1.40;99.90
4993;DHT22;2514;53.524;10.166;2022-11-20T08:41:16;1.50;99.90
4993;DHT22;2514;53.524;10.166;2022-11-20T08:43:55;1.50;99.90
4993;DHT22;2514;53.524;10.166;2022-11-20T08:46:23;1.60;99.90
4993;DHT22;2514;53.524;10.166;2022-11-20T08:48:51;1.60;99.90
4993;DHT22;2514;53.524;10.166;2022-11-20T08:51:19;1.60;99.90
4993;DHT22;2514;53.524;10.166;2022-11-20T08:53:47;1.60;1.00
4993;DHT22;2514;53.524;10.166;2022-11-20T08:56:16;1.60;1.00
4993;DHT22;2514;53.524;10.166;2022-11-20T08:58:44;1.60;1.00
4993;DHT22;2514;53.524;10.166;2022-11-20T09:01:11;1.70;1.00
4993;DHT22;2514;53.524;10.166;2022-11-20T09:03:38;1.60;1.00
4993;DHT22;2514;53.524;10.166;2022-11-20T09:06:06;1.60;1.00
4993;DHT22;2514;53.524;10.166;2022-11-20T09:08:34;1.60;1.00
4993;DHT22;2514;53.524;10.166;2022-11-20T09:11:03;1.60;99.90
4993;DHT22;2514;53.524;10.166;2022-11-20T09:13:33;1.70;1.00
4993;DHT22;2514;53.524;10.166;2022-11-20T09:16:03;1.80;1.00
4993;DHT22;2514;53.524;10.166;2022-11-20T09:18:31;1.90;1.00
4993;DHT22;2514;53.524;10.166;2022-11-20T09:21:00;2.10;1.00
4993;DHT22;2514;53.524;10.166;2022-11-20T09:23:32;2.20;99.90
4993;DHT22;2514;53.524;10.166;2022-11-20T09:26:02;2.00;1.00
4993;DHT22;2514;53.524;10.166;2022-11-20T09:28:31;2.00;1.00
4993;DHT22;2514;53.524;10.166;2022-11-20T09:30:59;2.10;3.10
4993;DHT22;2514;53.524;10.166;2022-11-20T09:33:26;2.00;99.90
4993;DHT22;2514;53.524;10.166;2022-11-20T09:35:53;2.00;99.90
4993;DHT22;2514;53.524;10.166;2022-11-20T09:38:20;2.00;99.90
4993;DHT22;2514;53.524;10.166;2022-11-20T09:40:54;2.00;99.90
4993;DHT22;2514;53.524;10.166;2022-11-20T09:43:28;2.10;99.90
4993;DHT22;2514;53.524;10.166;2022-11-20T09:46:09;2.10;1.00
4993;DHT22;2514;53.524;10.166;2022-11-20T09:49:13;2.10;1.00
4993;DHT22;2514;53.524;10.166;2022-11-20T09:51:53;2.20;1.00
4993;DHT22;2514;53.524;10.166;2022-11-20T09:54:29;2.30;1.00
4993;DHT22;2514;53.524;10.166;2022-11-20T09:57:00;2.40;1.00
4993;DHT22;2514;53.524;10.166;2022-11-20T09:59:41;2.30;99.90
4993;DHT22;2514;53.524;10.166;2022-11-20T10:02:17;2.00;32.20
4993;DHT22;2514;53.524;10.166;2022-11-20T10:04:51;1.90;99.90
4993;DHT22;2514;53.524;10.166;2022-11-20T10:07:23;1.90;1.00
4993;DHT22;2514;53.524;10.166;2022-11-20T10:09:54;1.90;99.90
4993;DHT22;2514;53.524;10.166;2022-11-20T10:12:27;1.70;99.90
4993;DHT22;2514;53.524;10.166;2022-11-20T10:15:10;1.70;99.90
4993;DHT22;2514;53.524;10.166;2022-11-20T10:18:05;1.80;99.90
4993;DHT22;2514;53.524;10.166;2022-11-20T10:20:43;1.90;99.90
4993;DHT22;2514;53.524;10.166;2022-11-20T10:23:40;2.00;99.90
4993;DHT22;2514;53.524;10.166;2022-11-20T10:26:21;1.90;99.90
4993;DHT22;2514;53.524;10.166;2022-11-20T10:29:00;2.00;99.90
4993;DHT22;2514;53.524;10.166;2022-11-20T10:31:37;2.20;99.90
4993;DHT22;2514;53.524;10.166;2022-11-20T10:34:12;2.10;99.90
4993;DHT22;2514;53.524;10.166;2022-11-20T10:36:47;1.90;99.90
4993;DHT22;2514;53.524;10.166;2022-11-20T10:39:24;1.90;99.90
4993;DHT22;2514;53.524;10.166;2022-11-20T10:41:56;2.00;99.90
4993;DHT22;2514;53.524;10.166;2022-11-20T10:44:27;2.20;1.00
4993;DHT22;2514;53.524;10.166;2022-11-20T10:47:16;2.30;1.00
4993;DHT22;2514;53.524;10.166;2022-11-20T10:49:47;2.30;1.00
4993;DHT22;2514;53.524;10.166;2022-11-20T10:52:21;2.30;99.90
4993;DHT22;2514;53.524;10.166;2022-11-20T10:54:59;2.30;1.00
4993;DHT22;2514;53.524;10.166;2022-11-20T10:57:46;2.20;99.90
4993;DHT22;2514;53.524;10.166;2022-11-20T11:00:19;2.40;99.90
4993;DHT22;2514;53.524;10.166;2022-11-20T11:02:48;3.10;99.90
4993;DHT22;2514;53.524;10.166;2022-11-20T11:05:31;4.00;99.90
4993;DHT22;2514;53.524;10.166;2022-11-20T11:08:01;4.60;1.00
4993;DHT22;2514;53.524;10.166;2022-11-20T11:10:35;4.00;99.90
4993;DHT22;2514;53.524;10.166;2022-11-20T11:13:04;3.50;99.90
4993;DHT22;2514;53.524;10.166;2022-11-20T11:15:37;3.30;99.90
4993;DHT22;2514;53.524;10.166;2022-11-20T11:18:09;3.20;99.90
4993;DHT22;2514;53.524;10.166;2022-11-20T11:20:36;3.30;19.30
4993;DHT22;2514;53.524;10.166;2022-11-20T11:23:04;3.20;1.00
4993;DHT22;2514;53.524;10.166;2022-11-20T11:25:32;2.90;1.00
4993;DHT22;2514;53.524;10.166;2022-11-20T11:28:02;2.70;1.00
4993;DHT22;2514;53.524;10.166;2022-11-20T11:30:41;2.80;1.00
4993;DHT22;2514;53.524;10.166;2022-11-20T11:33:18;2.70;1.00
4993;DHT22;2514;53.524;10.166;2022-11-20T11:35:48;2.90;1.00
4993;DHT22;2514;53.524;10.166;2022-11-20T11:38:21;3.10;1.00
4993;DHT22;2514;53.524;10.166;2022-11-20T11:40:53;2.70;1.00
4993;DHT22;2514;53.524;10.166;2022-11-20T11:43:24;2.50;1.00
4993;DHT22;2514;53.524;10.166;2022-11-20T11:46:27;2.70;99.90
4993;DHT22;2514;53.524;10.166;2022-11-20T11:48:59;2.70;11.50
4993;DHT22;2514;53.524;10.166;2022-11-20T11:51:32;2.60;1.00
4993;DHT22;2514;53.524;10.166;2022-11-20T11:54:20;2.70;99.90
4993;DHT22;2514;53.524;10.166;2022-11-20T11:56:49;2.80;99.90
4993;DHT22;2514;53.524;10.166;2022-11-20T11:59:27;2.70;99.90
4993;DHT22;2514;53.524;10.166;2022-11-20T12:02:01;2.70;99.90
4993;DHT22;2514;53.524;10.166;2022-11-20T12:04:42;2.90;99.90
4993;DHT22;2514;53.524;10.166;2022-11-20T12:07:15;2.70;1.00
4993;DHT22;2514;53.524;10.166;2022-11-20T12:09:51;2.80;99.90
4993;DHT22;2514;53.524;10.166;2022-11-20T12:12:22;2.70;99.90
4993;DHT22;2514;53.524;10.166;2022-11-20T12:14:53;2.60;1.00
4993;DHT22;2514;53.524;10.166;2022-11-20T12:17:21;2.40;1.00
4993;DHT22;2514;53.524;10.166;2022-11-20T12:19:51;2.40;1.00
4993;DHT22;2514;53.524;10.166;2022-11-20T12:22:26;2.50;99.90
4993;DHT22;2514;53.524;10.166;2022-11-20T12:25:02;2.80;99.90
4993;DHT22;2514;53.524;10.166;2022-11-20T12:27:44;2.90;99.90
4993;DHT22;2514;53.524;10.166;2022-11-20T12:30:19;3.00;1.00
4993;DHT22;2514;53.524;10.166;2022-11-20T12:36:08;2.70;99.30
4993;DHT22;2514;53.524;10.166;2022-11-20T12:39:02;2.50;99.90
4993;DHT22;2514;53.524;10.166;2022-11-20T12:41:51;2.50;99.90
4993;DHT22;2514;53.524;10.166;2022-11-20T12:45:10;2.40;99.90
4993;DHT22;2514;53.524;10.166;2022-11-20T12:48:14;2.60;99.90
4993;DHT22;2514;53.524;10.166;2022-11-20T12:50:52;2.70;99.90
4993;DHT22;2514;53.524;10.166;2022-11-20T12:53:40;2.80;99.90
4993;DHT22;2514;53.524;10.166;2022-11-20T12:56:20;2.80;2.10
4993;DHT22;2514;53.524;10.166;2022-11-20T12:59:05;3.00;1.00
4993;DHT22;2514;53.524;10.166;2022-11-20T13:01:50;3.00;1.00
4993;DHT22;2514;53.524;10.166;2022-11-20T13:04:32;3.00;1.00
4993;DHT22;2514;53.524;10.166;2022-11-20T13:07:12;2.80;99.90
4993;DHT22;2514;53.524;10.166;2022-11-20T13:09:43;2.60;99.90
4993;DHT22;2514;53.524;10.166;2022-11-20T13:12:16;2.50;99.90
4993;DHT22;2514;53.524;10.166;2022-11-20T13:14:50;2.50;1.00
4993;DHT22;2514;53.524;10.166;2022-11-20T13:17:26;2.50;1.00
4993;DHT22;2514;53.524;10.166;2022-11-20T13:19:57;2.50;1.00
4993;DHT22;2514;53.524;10.166;2022-11-20T13:22:28;2.60;1.00
4993;DHT22;2514;53.524;10.166;2022-11-20T13:25:09;2.60;1.00
4993;DHT22;2514;53.524;10.166;2022-11-20T13:27:47;2.60;1.00
4993;DHT22;2514;53.524;10.166;2022-11-20T13:30:16;2.70;99.90
4993;DHT22;2514;53.524;10.166;2022-11-20T13:32:55;2.90;99.90
4993;DHT22;2514;53.524;10.166;2022-11-20T13:35:28;2.90;99.90
4993;DHT22;2514;53.524;10.166;2022-11-20T13:38:03;3.00;99.90
4993;DHT22;2514;53.524;10.166;2022-11-20T13:40:36;3.10;99.90
4993;DHT22;2514;53.524;10.166;2022-11-20T13:43:14;3.10;99.90
4993;DHT22;2514;53.524;10.166;2022-11-20T13:45:55;3.00;72.50
4993;DHT22;2514;53.524;10.166;2022-11-20T13:48:25;3.00;21.90
4993;DHT22;2514;53.524;10.166;2022-11-20T13:51:15;2.90;91.50
4993;DHT22;2514;53.524;10.166;2022-11-20T13:57:40;2.80;70.00
4993;DHT22;2514;53.524;10.166;2022-11-20T14:00:15;2.90;99.90
4993;DHT22;2514;53.524;10.166;2022-11-20T14:02:44;2.90;99.90
4993;DHT22;2514;53.524;10.166;2022-11-20T14:05:26;3.00;99.90
4993;DHT22;2514;53.524;10.166;2022-11-20T14:07:54;3.10;91.60
4993;DHT22;2514;53.524;10.166;2022-11-20T14:10:24;3.00;1.00
4993;DHT22;2514;53.524;10.166;2022-11-20T14:12:52;2.90;1.00
4993;DHT22;2514;53.524;10.166;2022-11-20T14:15:28;2.80;1.00
4993;DHT22;2514;53.524;10.166;2022-11-20T14:17:56;2.80;1.00
4993;DHT22;2514;53.524;10.166;2022-11-20T14:20:25;2.80;1.00
4993;DHT22;2514;53.524;10.166;2022-11-20T14:22:55;2.80;1.00
4993;DHT22;2514;53.524;10.166;2022-11-20T14:25:25;2.90;1.00
4993;DHT22;2514;53.524;10.166;2022-11-20T14:27:54;2.90;1.00
4993;DHT22;2514;53.524;10.166;2022-11-20T14:30:24;2.80;1.00
4993;DHT22;2514;53.524;10.166;2022-11-20T14:32:54;2.80;1.00
4993;DHT22;2514;53.524;10.166;2022-11-20T14:35:25;2.80;1.00
4993;DHT22;2514;53.524;10.166;2022-11-20T14:37:54;2.80;1.00
4993;DHT22;2514;53.524;10.166;2022-11-20T14:40:28;2.70;1.00
4993;DHT22;2514;53.524;10.166;2022-11-20T14:42:57;2.70;1.00
4993;DHT22;2514;53.524;10.166;2022-11-20T14:45:25;2.70;1.00
4993;DHT22;2514;53.524;10.166;2022-11-20T14:47:54;2.70;1.00
4993;DHT22;2514;53.524;10.166;2022-11-20T14:50:24;2.70;1.00
4993;DHT22;2514;53.524;10.166;2022-11-20T14:52:55;2.70;52.00
4993;DHT22;2514;53.524;10.166;2022-11-20T14:55:30;2.70;99.90
4993;DHT22;2514;53.524;10.166;2022-11-20T14:58:00;2.70;99.90
4993;DHT22;2514;53.524;10.166;2022-11-20T15:00:30;2.60;99.90
4993;DHT22;2514;53.524;10.166;2022-11-20T15:02:58;2.50;55.50
4993;DHT22;2514;53.524;10.166;2022-11-20T15:05:43;2.50;99.90
4993;DHT22;2514;53.524;10.166;2022-11-20T15:08:13;2.40;99.90
4993;DHT22;2514;53.524;10.166;2022-11-20T15:10:47;2.50;99.90
4993;DHT22;2514;53.524;10.166;2022-11-20T15:13:19;2.50;1.00
4993;DHT22;2514;53.524;10.166;2022-11-20T15:15:53;2.50;99.90
4993;DHT22;2514;53.524;10.166;2022-11-20T15:18:23;2.50;1.00
4993;DHT22;2514;53.524;10.166;2022-11-20T15:20:51;2.60;99.90
4993;DHT22;2514;53.524;10.166;2022-11-20T15:23:19;2.40;99.90
4993;DHT22;2514;53.524;10.166;2022-11-20T15:25:48;2.50;99.90
4993;DHT22;2514;53.524;10.166;2022-11-20T15:28:18;2.50;99.90
4993;DHT22;2514;53.524;10.166;2022-11-20T15:30:47;2.50;99.90
4993;DHT22;2514;53.524;10.166;2022-11-20T15:33:15;2.40;99.90
4993;DHT22;2514;53.524;10.166;2022-11-20T15:35:43;2.40;99.90
4993;DHT22;2514;53.524;10.166;2022-11-20T15:38:10;2.30;99.90
4993;DHT22;2514;53.524;10.166;2022-11-20T15:40:37;2.30;99.90
4993;DHT22;2514;53.524;10.166;2022-11-20T15:43:06;2.30;99.90
4993;DHT22;2514;53.524;10.166;2022-11-20T15:45:37;2.30;99.90
4993;DHT22;2514;53.524;10.166;2022-11-20T15:48:09;2.30;99.90
4993;DHT22;2514;53.524;10.166;2022-11-20T15:50:40;2.30;99.90
4993;DHT22;2514;53.524;10.166;2022-11-20T15:53:14;2.30;99.90
4993;DHT22;2514;53.524;10.166;2022-11-20T15:55:41;2.30;1.00
4993;DHT22;2514;53.524;10.166;2022-11-20T15:58:09;2.30;1.00
4993;DHT22;2514;53.524;10.166;2022-11-20T16:00:36;2.40;1.00
4993;DHT22;2514;53.524;10.166;2022-11-20T16:03:04;2.40;1.00
4993;DHT22;2514;53.524;10.166;2022-11-20T16:05:31;2.40;1.00
4993;DHT22;2514;53.524;10.166;2022-11-20T16:07:58;2.30;1.00
4993;DHT22;2514;53.524;10.166;2022-11-20T16:10:25;2.20;1.00
4993;DHT22;2514;53.524;10.166;2022-11-20T16:12:52;2.20;1.00
4993;DHT22;2514;53.524;10.166;2022-11-20T16:15:38;2.20;1.00
4993;DHT22;2514;53.524;10.166;2022-11-20T16:18:12;2.20;1.00
4993;DHT22;2514;53.524;10.166;2022-11-20T16:20:41;2.20;1.00
4993;DHT22;2514;53.524;10.166;2022-11-20T16:23:08;2.20;1.00
4993;DHT22;2514;53.524;10.166;2022-11-20T16:25:35;2.20;1.00
4993;DHT22;2514;53.524;10.166;2022-11-20T16:28:03;2.20;1.00
4993;DHT22;2514;53.524;10.166;2022-11-20T16:30:31;2.20;1.00
4993;DHT22;2514;53.524;10.166;2022-11-20T16:33:00;2.30;1.00
4993;DHT22;2514;53.524;10.166;2022-11-20T16:35:27;2.30;1.00
4993;DHT22;2514;53.524;10.166;2022-11-20T16:37:55;2.30;1.00
4993;DHT22;2514;53.524;10.166;2022-11-20T16:40:23;2.30;1.00